createdAt,value
2022-12-27T00:02:45.067Z,2.03
2022-12-27T00:07:46.792Z,2.23
2022-12-27T00:12:48.473Z,2.31
2022-12-27T00:17:50.987Z,2.21
2022-12-27T00:22:52.677Z,2.27
2022-12-27T00:27:54.394Z,2.20
2022-12-27T00:32:56.055Z,2.23
2022-12-27T00:37:57.687Z,2.08
2022-12-27T00:42:59.376Z,2.04
2022-12-27T00:48:01.046Z,1.95
2022-12-27T00:53:03.651Z,1.94
2022-12-27T00:58:05.703Z,1.87
2022-12-27T01:03:07.368Z,1.99
2022-12-27T01:08:09.090Z,1.98
2022-12-27T01:13:11.133Z,1.91
2022-12-27T01:18:12.866Z,1.91
2022-12-27T01:23:14.701Z,1.90
2022-12-27T01:28:16.386Z,1.89
2022-12-27T01:33:18.020Z,1.76
2022-12-27T01:38:19.686Z,1.92
2022-12-27T01:43:37.263Z,1.86
2022-12-27T01:48:39.259Z,1.90
2022-12-27T01:53:45.717Z,1.83
2022-12-27T01:58:59.808Z,1.87
2022-12-27T02:04:09.181Z,1.86
2022-12-27T02:09:23.667Z,1.77
2022-12-27T02:14:32.897Z,1.79
2022-12-27T02:19:40.550Z,1.78
2022-12-27T02:24:54.177Z,1.75
2022-12-27T02:29:59.986Z,1.69
2022-12-27T02:35:24.801Z,1.59
2022-12-27T02:40:46.606Z,1.64
2022-12-27T02:46:48.567Z,1.61
2022-12-27T02:52:26.779Z,1.72
2022-12-27T02:57:58.293Z,1.69
2022-12-27T03:03:18.562Z,1.71
2022-12-27T03:08:33.496Z,1.63
2022-12-27T03:13:53.690Z,1.66
2022-12-27T03:19:04.167Z,1.61
2022-12-27T03:24:26.079Z,1.63
2022-12-27T03:29:46.601Z,1.58
2022-12-27T03:34:54.025Z,1.59
2022-12-27T03:39:59.197Z,1.46
2022-12-27T03:45:00.857Z,1.49
2022-12-27T03:50:14.517Z,1.42
2022-12-27T03:55:17.667Z,1.50
2022-12-27T04:00:19.399Z,1.53
2022-12-27T04:05:21.065Z,1.38
2022-12-27T04:10:41.413Z,1.32
2022-12-27T04:16:02.091Z,1.27
2022-12-27T04:21:22.546Z,1.34
2022-12-27T04:26:42.968Z,1.37
2022-12-27T04:32:03.078Z,1.50
2022-12-27T04:37:04.806Z,1.54
2022-12-27T04:42:25.037Z,1.57
2022-12-27T04:47:45.517Z,1.75
2022-12-27T04:53:07.093Z,1.78
2022-12-27T04:58:08.758Z,1.81
2022-12-27T05:03:15.070Z,1.90
2022-12-27T05:08:45.371Z,1.94
2022-12-27T05:14:02.265Z,2.03
2022-12-27T05:19:05.850Z,1.78
2022-12-27T05:24:26.058Z,1.76
2022-12-27T05:29:30.289Z,1.61
2022-12-27T05:34:31.973Z,1.58
2022-12-27T05:39:33.641Z,1.58
2022-12-27T05:44:35.333Z,1.58
2022-12-27T05:49:37.041Z,1.54
2022-12-27T05:54:38.709Z,1.46
2022-12-27T05:59:40.468Z,1.41
2022-12-27T06:04:42.273Z,1.33
2022-12-27T06:09:44.173Z,1.30
2022-12-27T06:14:45.867Z,1.32
2022-12-27T06:19:50.183Z,1.38
2022-12-27T06:24:55.541Z,1.30
2022-12-27T06:29:57.303Z,1.25
2022-12-27T06:34:58.944Z,1.35
2022-12-27T06:40:00.635Z,1.32
2022-12-27T06:45:02.455Z,1.23
2022-12-27T06:50:04.664Z,1.16
2022-12-27T06:55:06.579Z,1.34
2022-12-27T07:00:09.036Z,1.45
2022-12-27T07:05:10.694Z,1.51
2022-12-27T07:10:12.465Z,1.68
2022-12-27T07:15:14.207Z,1.47
2022-12-27T07:20:16.181Z,1.22
2022-12-27T07:25:17.843Z,1.33
2022-12-27T07:30:20.131Z,1.37
2022-12-27T07:35:21.784Z,1.39
2022-12-27T07:40:23.636Z,1.27
2022-12-27T07:45:25.411Z,1.19
2022-12-27T07:50:27.413Z,1.25
2022-12-27T07:55:29.190Z,1.23
2022-12-27T08:00:30.959Z,1.29
2022-12-27T08:05:34.254Z,1.37
2022-12-27T08:10:36.319Z,1.42
2022-12-27T08:15:40.231Z,1.40
2022-12-27T08:20:42.077Z,1.55
2022-12-27T08:25:48.922Z,1.75
2022-12-27T08:30:51.145Z,1.84
2022-12-27T08:35:54.844Z,1.97
2022-12-27T08:40:57.012Z,2.09
2022-12-27T08:46:06.175Z,2.05
2022-12-27T08:51:13.190Z,2.12
2022-12-27T08:56:17.398Z,2.24
2022-12-27T09:01:19.553Z,2.20
2022-12-27T09:06:23.373Z,2.26
2022-12-27T09:11:31.873Z,2.32
2022-12-27T09:16:36.753Z,2.58
2022-12-27T09:21:41.157Z,2.50
2022-12-27T09:26:43.117Z,2.69
2022-12-27T09:31:45.133Z,2.44
2022-12-27T09:36:47.262Z,2.35
2022-12-27T09:47:27.237Z,2.62
2022-12-27T09:52:49.813Z,2.53
2022-12-27T09:58:03.660Z,2.62
2022-12-27T10:03:06.923Z,2.87
2022-12-27T10:08:17.719Z,3.10
2022-12-27T10:13:46.588Z,3.09
2022-12-27T10:19:00.417Z,3.38
2022-12-27T10:24:30.198Z,3.15
2022-12-27T10:29:35.290Z,3.01
2022-12-27T10:34:37.515Z,3.70
2022-12-27T10:39:40.133Z,3.35
2022-12-27T10:44:42.094Z,3.48
2022-12-27T10:50:02.971Z,3.83
2022-12-27T10:55:05.069Z,3.74
2022-12-27T11:00:16.760Z,4.16
2022-12-27T11:05:32.929Z,3.72
2022-12-27T11:10:34.735Z,3.54
2022-12-27T11:15:40.922Z,3.67
2022-12-27T11:20:49.347Z,3.88
2022-12-27T11:25:55.744Z,5.00
2022-12-27T11:31:06.627Z,5.06
2022-12-27T11:36:12.911Z,4.56
2022-12-27T11:41:27.552Z,6.13
2022-12-27T11:46:35.934Z,5.14
2022-12-27T11:51:43.494Z,5.62
2022-12-27T11:57:20.070Z,5.40
2022-12-27T12:02:24.901Z,5.62
2022-12-27T12:07:53.771Z,4.99
2022-12-27T12:13:01.266Z,5.01
2022-12-27T12:18:18.200Z,5.47
2022-12-27T12:23:46.958Z,6.18
2022-12-27T12:28:59.647Z,4.95
2022-12-27T12:34:24.217Z,4.78
2022-12-27T12:40:02.746Z,5.58
2022-12-27T12:45:28.704Z,5.34
2022-12-27T12:50:36.229Z,4.92
2022-12-27T12:56:04.020Z,4.82
2022-12-27T13:01:24.497Z,5.06
2022-12-27T13:06:52.020Z,5.08
2022-12-27T13:12:16.277Z,5.09
2022-12-27T13:17:54.941Z,5.13
2022-12-27T13:23:33.509Z,5.54
2022-12-27T13:28:47.564Z,5.95
2022-12-27T13:33:52.565Z,5.32
2022-12-27T13:39:11.228Z,5.16
2022-12-27T13:44:43.359Z,5.11
2022-12-27T14:00:26.420Z,4.62
2022-12-27T14:06:06.121Z,4.68
2022-12-27T14:11:55.448Z,4.67
2022-12-27T14:17:12.164Z,4.62
2022-12-27T14:22:13.751Z,4.92
2022-12-27T14:27:43.711Z,5.31
2022-12-27T14:33:03.364Z,5.00
2022-12-27T14:38:29.495Z,5.16
2022-12-27T14:49:12.261Z,4.88
2022-12-27T14:54:41.510Z,4.53
2022-12-27T14:59:52.485Z,4.93
2022-12-27T15:05:19.497Z,4.75
2022-12-27T15:10:26.070Z,4.67
2022-12-27T15:15:34.845Z,4.32
2022-12-27T15:20:52.527Z,4.57
2022-12-27T15:26:16.909Z,4.80
2022-12-27T15:31:43.076Z,4.49
2022-12-27T15:36:47.819Z,4.58
2022-12-27T15:42:12.579Z,4.32
2022-12-27T15:47:51.595Z,4.21
2022-12-27T15:53:30.131Z,4.16
2022-12-27T15:58:32.985Z,4.04
2022-12-27T16:03:37.510Z,3.96
2022-12-27T16:08:42.604Z,4.07
2022-12-27T16:13:48.773Z,3.94
2022-12-27T16:19:21.499Z,3.82
2022-12-27T16:24:27.145Z,3.89
2022-12-27T16:29:35.284Z,3.75
2022-12-27T16:34:37.277Z,3.74
2022-12-27T16:40:08.064Z,3.87
2022-12-27T16:45:28.142Z,3.79
2022-12-27T16:50:55.781Z,3.81
2022-12-27T16:56:11.430Z,3.70
2022-12-27T17:01:18.952Z,3.71
2022-12-27T17:06:32.034Z,3.79
2022-12-27T17:11:55.215Z,3.63
2022-12-27T17:17:00.947Z,3.89
2022-12-27T17:22:05.704Z,3.97
2022-12-27T17:27:19.560Z,4.00
2022-12-27T17:32:24.128Z,3.81
2022-12-27T17:37:45.781Z,3.52
2022-12-27T17:43:18.329Z,3.63
2022-12-27T17:48:31.084Z,3.51
2022-12-27T17:53:51.561Z,3.49
2022-12-27T17:59:01.396Z,3.45
2022-12-27T18:04:06.127Z,3.40
2022-12-27T18:09:10.703Z,3.34
2022-12-27T18:14:14.621Z,3.30
2022-12-27T18:19:20.672Z,3.26
2022-12-27T18:24:34.345Z,3.23
2022-12-27T18:29:37.070Z,3.25
2022-12-27T18:34:45.908Z,3.22
2022-12-27T18:40:02.918Z,3.19
2022-12-27T18:45:18.572Z,3.17
2022-12-27T18:50:25.950Z,3.13
2022-12-27T18:55:28.982Z,3.10
2022-12-27T19:00:31.187Z,3.08
2022-12-27T19:05:33.588Z,3.09
2022-12-27T19:10:36.249Z,3.02
2022-12-27T19:15:43.464Z,2.98
2022-12-27T19:20:59.393Z,2.92
2022-12-27T19:26:07.091Z,2.88
2022-12-27T19:31:21.910Z,2.86
2022-12-27T19:36:34.128Z,2.84
2022-12-27T19:41:38.682Z,2.87
2022-12-27T19:46:40.723Z,2.82
2022-12-27T19:51:43.092Z,2.80
2022-12-27T19:56:48.053Z,2.80
2022-12-27T20:01:50.556Z,2.75
2022-12-27T20:06:52.477Z,2.66
2022-12-27T20:11:54.585Z,2.71
2022-12-27T20:16:57.892Z,2.66
2022-12-27T20:21:59.928Z,2.68
2022-12-27T20:27:01.770Z,2.65
2022-12-27T20:32:04.049Z,2.65
2022-12-27T20:37:06.175Z,2.50
2022-12-27T20:42:08.044Z,2.46
2022-12-27T20:47:10.124Z,2.43
2022-12-27T20:52:12.084Z,2.45
2022-12-27T20:57:13.998Z,2.41
2022-12-27T21:02:16.041Z,2.48
2022-12-27T21:07:17.889Z,2.40
2022-12-27T21:12:19.744Z,2.42
2022-12-27T21:17:21.458Z,2.50
2022-12-27T21:22:23.690Z,2.54
2022-12-27T21:27:25.431Z,2.57
2022-12-27T21:32:27.215Z,2.57
2022-12-27T21:37:28.920Z,2.62
2022-12-27T21:42:30.544Z,2.60
2022-12-27T21:47:32.223Z,2.60
2022-12-27T21:52:33.863Z,2.59
2022-12-27T21:57:35.492Z,2.63
2022-12-27T22:02:37.262Z,2.62
2022-12-27T22:07:39.138Z,2.62
2022-12-27T22:12:40.803Z,2.61
2022-12-27T22:17:42.515Z,2.57
2022-12-27T22:22:44.166Z,2.54
2022-12-27T22:27:45.846Z,2.52
2022-12-27T22:32:47.549Z,2.51
2022-12-27T22:37:49.209Z,2.43
2022-12-27T22:42:50.851Z,2.50
2022-12-27T22:47:52.827Z,2.50
2022-12-27T22:52:54.523Z,2.56
2022-12-27T22:57:56.222Z,2.54
2022-12-27T23:02:57.915Z,2.49
2022-12-27T23:08:05.262Z,2.55
2022-12-27T23:13:08.577Z,2.57
2022-12-27T23:18:10.212Z,2.43
2022-12-27T23:23:11.887Z,2.38
2022-12-27T23:28:14.525Z,2.41
2022-12-27T23:33:16.467Z,2.38
2022-12-27T23:38:18.120Z,2.28
2022-12-27T23:43:50.946Z,2.33
2022-12-27T23:48:42.125Z,2.31
2022-12-27T23:53:44.057Z,2.21
2022-12-27T23:58:46.403Z,2.24
